sensor_id;sensor_type;location;lat;lon;timestamp;P1;durP1;ratioP1;P2;durP2;ratioP2
69998;SDS011;57339;52.156;5.372;2024-01-07T00:00:46;36.70;;;18.35;;
69998;SDS011;57339;52.156;5.372;2024-01-07T00:03:17;33.42;;;15.32;;
69998;SDS011;57339;52.156;5.372;2024-01-07T00:05:47;29.00;;;14.00;;
69998;SDS011;57339;52.156;5.372;2024-01-07T00:08:17;31.42;;;13.95;;
69998;SDS011;57339;52.156;5.372;2024-01-07T00:10:47;27.45;;;12.93;;
69998;SDS011;57339;52.156;5.372;2024-01-07T00:13:17;29.65;;;13.02;;
69998;SDS011;57339;52.156;5.372;2024-01-07T00:15:47;27.63;;;12.52;;
69998;SDS011;57339;52.156;5.372;2024-01-07T00:18:17;30.53;;;14.67;;
69998;SDS011;57339;52.156;5.372;2024-01-07T00:20:47;28.33;;;13.45;;
69998;SDS011;57339;52.156;5.372;2024-01-07T00:23:17;30.25;;;13.85;;
69998;SDS011;57339;52.156;5.372;2024-01-07T00:25:47;28.98;;;13.73;;
69998;SDS011;57339;52.156;5.372;2024-01-07T00:28:16;28.88;;;13.80;;
69998;SDS011;57339;52.156;5.372;2024-01-07T00:30:42;30.33;;;14.30;;
69998;SDS011;57339;52.156;5.372;2024-01-07T00:33:12;33.22;;;15.18;;
69998;SDS011;57339;52.156;5.372;2024-01-07T00:35:42;31.33;;;14.70;;
69998;SDS011;57339;52.156;5.372;2024-01-07T00:38:10;28.58;;;13.27;;
69998;SDS011;57339;52.156;5.372;2024-01-07T00:40:37;31.73;;;13.60;;
69998;SDS011;57339;52.156;5.372;2024-01-07T00:43:05;29.13;;;13.90;;
69998;SDS011;57339;52.156;5.372;2024-01-07T00:45:32;28.10;;;13.30;;
69998;SDS011;57339;52.156;5.372;2024-01-07T00:47:59;28.67;;;13.50;;
69998;SDS011;57339;52.156;5.372;2024-01-07T00:50:26;29.17;;;13.77;;
69998;SDS011;57339;52.156;5.372;2024-01-07T00:52:53;30.42;;;13.75;;
69998;SDS011;57339;52.156;5.372;2024-01-07T00:55:20;29.00;;;13.87;;
69998;SDS011;57339;52.156;5.372;2024-01-07T00:57:47;29.48;;;13.52;;
69998;SDS011;57339;52.156;5.372;2024-01-07T01:00:17;27.35;;;12.30;;
69998;SDS011;57339;52.156;5.372;2024-01-07T01:02:47;26.73;;;12.43;;
69998;SDS011;57339;52.156;5.372;2024-01-07T01:05:18;25.67;;;11.90;;
69998;SDS011;57339;52.156;5.372;2024-01-07T01:07:48;25.57;;;11.90;;
69998;SDS011;57339;52.156;5.372;2024-01-07T01:10:15;29.50;;;13.40;;
69998;SDS011;57339;52.156;5.372;2024-01-07T01:12:43;24.20;;;11.35;;
69998;SDS011;57339;52.156;5.372;2024-01-07T01:15:13;27.60;;;11.98;;
69998;SDS011;57339;52.156;5.372;2024-01-07T01:17:43;23.77;;;10.75;;
69998;SDS011;57339;52.156;5.372;2024-01-07T01:20:13;24.60;;;11.37;;
69998;SDS011;57339;52.156;5.372;2024-01-07T01:22:42;26.45;;;12.02;;
69998;SDS011;57339;52.156;5.372;2024-01-07T01:25:12;25.83;;;11.65;;
69998;SDS011;57339;52.156;5.372;2024-01-07T01:27:39;25.65;;;12.15;;
69998;SDS011;57339;52.156;5.372;2024-01-07T01:30:06;26.70;;;11.98;;
69998;SDS011;57339;52.156;5.372;2024-01-07T01:32:34;29.07;;;13.43;;
69998;SDS011;57339;52.156;5.372;2024-01-07T01:35:01;30.05;;;13.73;;
69998;SDS011;57339;52.156;5.372;2024-01-07T01:37:28;29.77;;;13.50;;
69998;SDS011;57339;52.156;5.372;2024-01-07T01:39:55;27.55;;;12.38;;
69998;SDS011;57339;52.156;5.372;2024-01-07T01:42:22;32.83;;;14.32;;
69998;SDS011;57339;52.156;5.372;2024-01-07T01:44:49;33.43;;;14.97;;
69998;SDS011;57339;52.156;5.372;2024-01-07T01:47:16;28.10;;;12.38;;
69998;SDS011;57339;52.156;5.372;2024-01-07T01:49:46;33.88;;;14.77;;
69998;SDS011;57339;52.156;5.372;2024-01-07T01:52:13;31.30;;;14.23;;
69998;SDS011;57339;52.156;5.372;2024-01-07T01:54:43;31.60;;;14.27;;
69998;SDS011;57339;52.156;5.372;2024-01-07T01:57:15;31.27;;;14.57;;
69998;SDS011;57339;52.156;5.372;2024-01-07T01:59:48;32.88;;;15.00;;
69998;SDS011;57339;52.156;5.372;2024-01-07T02:02:18;32.15;;;14.88;;
69998;SDS011;57339;52.156;5.372;2024-01-07T02:04:48;33.97;;;14.98;;
69998;SDS011;57339;52.156;5.372;2024-01-07T02:07:16;31.15;;;14.90;;
69998;SDS011;57339;52.156;5.372;2024-01-07T02:09:43;32.53;;;14.40;;
69998;SDS011;57339;52.156;5.372;2024-01-07T02:12:13;34.20;;;14.05;;
69998;SDS011;57339;52.156;5.372;2024-01-07T02:14:39;33.10;;;15.40;;
69998;SDS011;57339;52.156;5.372;2024-01-07T02:17:07;34.53;;;15.38;;
69998;SDS011;57339;52.156;5.372;2024-01-07T02:19:34;35.53;;;16.25;;
69998;SDS011;57339;52.156;5.372;2024-01-07T02:22:01;33.37;;;14.70;;
69998;SDS011;57339;52.156;5.372;2024-01-07T02:24:29;37.92;;;16.58;;
69998;SDS011;57339;52.156;5.372;2024-01-07T02:26:56;37.97;;;16.83;;
69998;SDS011;57339;52.156;5.372;2024-01-07T02:29:23;34.22;;;15.00;;
69998;SDS011;57339;52.156;5.372;2024-01-07T02:31:50;38.38;;;17.67;;
69998;SDS011;57339;52.156;5.372;2024-01-07T02:34:18;34.50;;;15.93;;
69998;SDS011;57339;52.156;5.372;2024-01-07T02:36:45;35.10;;;16.05;;
69998;SDS011;57339;52.156;5.372;2024-01-07T02:39:19;35.80;;;16.15;;
69998;SDS011;57339;52.156;5.372;2024-01-07T02:41:49;32.83;;;15.32;;
69998;SDS011;57339;52.156;5.372;2024-01-07T02:44:19;33.55;;;15.80;;
69998;SDS011;57339;52.156;5.372;2024-01-07T02:46:52;29.37;;;14.07;;
69998;SDS011;57339;52.156;5.372;2024-01-07T02:49:19;33.60;;;15.77;;
69998;SDS011;57339;52.156;5.372;2024-01-07T02:51:49;30.40;;;13.15;;
69998;SDS011;57339;52.156;5.372;2024-01-07T02:54:19;35.00;;;15.88;;
69998;SDS011;57339;52.156;5.372;2024-01-07T02:56:49;30.60;;;14.70;;
69998;SDS011;57339;52.156;5.372;2024-01-07T02:59:19;29.27;;;13.70;;
69998;SDS011;57339;52.156;5.372;2024-01-07T03:01:49;31.00;;;15.32;;
69998;SDS011;57339;52.156;5.372;2024-01-07T03:04:19;28.90;;;13.75;;
69998;SDS011;57339;52.156;5.372;2024-01-07T03:06:47;33.50;;;15.77;;
69998;SDS011;57339;52.156;5.372;2024-01-07T03:09:14;34.95;;;16.05;;
69998;SDS011;57339;52.156;5.372;2024-01-07T03:11:42;28.57;;;14.50;;
69998;SDS011;57339;52.156;5.372;2024-01-07T03:14:09;36.47;;;15.88;;
69998;SDS011;57339;52.156;5.372;2024-01-07T03:16:36;31.23;;;15.07;;
69998;SDS011;57339;52.156;5.372;2024-01-07T03:19:03;33.20;;;15.38;;
69998;SDS011;57339;52.156;5.372;2024-01-07T03:21:31;33.53;;;15.45;;
69998;SDS011;57339;52.156;5.372;2024-01-07T03:23:58;35.93;;;15.90;;
69998;SDS011;57339;52.156;5.372;2024-01-07T03:26:28;35.55;;;16.15;;
69998;SDS011;57339;52.156;5.372;2024-01-07T03:28:57;32.65;;;15.27;;
69998;SDS011;57339;52.156;5.372;2024-01-07T03:31:24;34.78;;;15.98;;
69998;SDS011;57339;52.156;5.372;2024-01-07T03:33:53;34.38;;;16.33;;
69998;SDS011;57339;52.156;5.372;2024-01-07T03:36:21;34.10;;;16.47;;
69998;SDS011;57339;52.156;5.372;2024-01-07T03:38:48;35.17;;;15.93;;
69998;SDS011;57339;52.156;5.372;2024-01-07T03:41:15;32.75;;;15.63;;
69998;SDS011;57339;52.156;5.372;2024-01-07T03:43:45;35.85;;;15.93;;
69998;SDS011;57339;52.156;5.372;2024-01-07T03:46:13;33.88;;;15.73;;
69998;SDS011;57339;52.156;5.372;2024-01-07T03:48:41;33.60;;;15.90;;
69998;SDS011;57339;52.156;5.372;2024-01-07T03:51:09;27.80;;;12.70;;
69998;SDS011;57339;52.156;5.372;2024-01-07T03:53:36;32.47;;;15.27;;
69998;SDS011;57339;52.156;5.372;2024-01-07T03:56:03;33.38;;;15.55;;
69998;SDS011;57339;52.156;5.372;2024-01-07T03:58:30;34.67;;;15.50;;
69998;SDS011;57339;52.156;5.372;2024-01-07T04:00:57;34.23;;;15.30;;
69998;SDS011;57339;52.156;5.372;2024-01-07T04:03:24;37.55;;;16.45;;
69998;SDS011;57339;52.156;5.372;2024-01-07T04:05:51;37.70;;;17.15;;
69998;SDS011;57339;52.156;5.372;2024-01-07T04:08:18;36.03;;;15.82;;
69998;SDS011;57339;52.156;5.372;2024-01-07T04:10:45;36.05;;;16.55;;
69998;SDS011;57339;52.156;5.372;2024-01-07T04:13:15;36.17;;;16.83;;
69998;SDS011;57339;52.156;5.372;2024-01-07T04:15:44;39.35;;;16.70;;
69998;SDS011;57339;52.156;5.372;2024-01-07T04:18:11;40.33;;;17.35;;
69998;SDS011;57339;52.156;5.372;2024-01-07T04:20:38;37.92;;;16.55;;
69998;SDS011;57339;52.156;5.372;2024-01-07T04:23:05;35.10;;;16.27;;
69998;SDS011;57339;52.156;5.372;2024-01-07T04:25:32;36.70;;;16.47;;
69998;SDS011;57339;52.156;5.372;2024-01-07T04:28:00;38.08;;;17.30;;
69998;SDS011;57339;52.156;5.372;2024-01-07T04:30:27;36.95;;;16.50;;
69998;SDS011;57339;52.156;5.372;2024-01-07T04:32:54;37.58;;;16.02;;
69998;SDS011;57339;52.156;5.372;2024-01-07T04:35:21;32.15;;;16.05;;
69998;SDS011;57339;52.156;5.372;2024-01-07T04:37:48;32.43;;;15.30;;
69998;SDS011;57339;52.156;5.372;2024-01-07T04:40:15;35.20;;;15.05;;
69998;SDS011;57339;52.156;5.372;2024-01-07T04:42:44;31.02;;;15.18;;
69998;SDS011;57339;52.156;5.372;2024-01-07T04:45:11;32.45;;;15.23;;
69998;SDS011;57339;52.156;5.372;2024-01-07T04:47:41;29.15;;;14.05;;
69998;SDS011;57339;52.156;5.372;2024-01-07T04:50:08;31.37;;;14.63;;
69998;SDS011;57339;52.156;5.372;2024-01-07T04:52:35;28.35;;;13.13;;
69998;SDS011;57339;52.156;5.372;2024-01-07T04:55:02;30.60;;;13.85;;
69998;SDS011;57339;52.156;5.372;2024-01-07T04:57:29;28.30;;;14.35;;
69998;SDS011;57339;52.156;5.372;2024-01-07T04:59:56;27.20;;;13.63;;
69998;SDS011;57339;52.156;5.372;2024-01-07T05:02:23;24.63;;;11.93;;
69998;SDS011;57339;52.156;5.372;2024-01-07T05:04:51;28.42;;;13.25;;
69998;SDS011;57339;52.156;5.372;2024-01-07T05:07:20;25.00;;;12.10;;
69998;SDS011;57339;52.156;5.372;2024-01-07T05:09:51;24.88;;;11.95;;
69998;SDS011;57339;52.156;5.372;2024-01-07T05:12:20;29.17;;;13.98;;
69998;SDS011;57339;52.156;5.372;2024-01-07T05:14:47;26.70;;;12.90;;
69998;SDS011;57339;52.156;5.372;2024-01-07T05:17:17;25.40;;;11.85;;
69998;SDS011;57339;52.156;5.372;2024-01-07T05:19:47;27.67;;;13.02;;
69998;SDS011;57339;52.156;5.372;2024-01-07T05:22:17;29.45;;;13.13;;
69998;SDS011;57339;52.156;5.372;2024-01-07T05:24:45;30.40;;;13.50;;
69998;SDS011;57339;52.156;5.372;2024-01-07T05:27:14;28.30;;;13.27;;
69998;SDS011;57339;52.156;5.372;2024-01-07T05:29:44;28.95;;;13.40;;
69998;SDS011;57339;52.156;5.372;2024-01-07T05:32:11;28.45;;;13.35;;
69998;SDS011;57339;52.156;5.372;2024-01-07T05:34:40;27.33;;;12.45;;
69998;SDS011;57339;52.156;5.372;2024-01-07T05:37:07;28.55;;;13.13;;
69998;SDS011;57339;52.156;5.372;2024-01-07T05:39:34;28.87;;;13.33;;
69998;SDS011;57339;52.156;5.372;2024-01-07T05:42:01;28.65;;;12.82;;
69998;SDS011;57339;52.156;5.372;2024-01-07T05:44:28;28.38;;;13.68;;
69998;SDS011;57339;52.156;5.372;2024-01-07T05:46:55;25.08;;;12.93;;
69998;SDS011;57339;52.156;5.372;2024-01-07T05:49:25;25.40;;;12.55;;
69998;SDS011;57339;52.156;5.372;2024-01-07T05:51:52;25.53;;;12.67;;
69998;SDS011;57339;52.156;5.372;2024-01-07T05:54:19;26.05;;;13.18;;
69998;SDS011;57339;52.156;5.372;2024-01-07T05:56:46;30.17;;;13.05;;
69998;SDS011;57339;52.156;5.372;2024-01-07T05:59:15;26.45;;;13.38;;
69998;SDS011;57339;52.156;5.372;2024-01-07T06:01:45;30.20;;;14.43;;
69998;SDS011;57339;52.156;5.372;2024-01-07T06:04:12;27.77;;;13.47;;
69998;SDS011;57339;52.156;5.372;2024-01-07T06:06:39;28.63;;;13.75;;
69998;SDS011;57339;52.156;5.372;2024-01-07T06:09:08;32.00;;;14.00;;
69998;SDS011;57339;52.156;5.372;2024-01-07T06:11:35;26.50;;;12.57;;
69998;SDS011;57339;52.156;5.372;2024-01-07T06:14:02;28.65;;;13.25;;
69998;SDS011;57339;52.156;5.372;2024-01-07T06:16:29;27.57;;;12.93;;
69998;SDS011;57339;52.156;5.372;2024-01-07T06:18:59;26.40;;;12.48;;
69998;SDS011;57339;52.156;5.372;2024-01-07T06:21:26;26.58;;;12.73;;
69998;SDS011;57339;52.156;5.372;2024-01-07T06:23:54;22.25;;;11.45;;
69998;SDS011;57339;52.156;5.372;2024-01-07T06:26:21;23.58;;;11.80;;
69998;SDS011;57339;52.156;5.372;2024-01-07T06:28:51;25.37;;;12.00;;
69998;SDS011;57339;52.156;5.372;2024-01-07T06:31:21;25.58;;;11.48;;
69998;SDS011;57339;52.156;5.372;2024-01-07T06:33:52;23.80;;;10.60;;
69998;SDS011;57339;52.156;5.372;2024-01-07T06:36:19;23.40;;;11.75;;
69998;SDS011;57339;52.156;5.372;2024-01-07T06:38:46;26.70;;;12.57;;
69998;SDS011;57339;52.156;5.372;2024-01-07T06:41:15;23.97;;;12.33;;
69998;SDS011;57339;52.156;5.372;2024-01-07T06:43:43;22.75;;;11.80;;
69998;SDS011;57339;52.156;5.372;2024-01-07T06:46:10;25.13;;;13.05;;
69998;SDS011;57339;52.156;5.372;2024-01-07T06:48:37;27.58;;;13.48;;
69998;SDS011;57339;52.156;5.372;2024-01-07T06:51:07;22.80;;;11.88;;
69998;SDS011;57339;52.156;5.372;2024-01-07T06:53:34;24.70;;;12.53;;
69998;SDS011;57339;52.156;5.372;2024-01-07T06:56:01;24.15;;;12.20;;
69998;SDS011;57339;52.156;5.372;2024-01-07T06:58:27;22.45;;;11.00;;
69998;SDS011;57339;52.156;5.372;2024-01-07T07:00:57;26.52;;;13.40;;
69998;SDS011;57339;52.156;5.372;2024-01-07T07:03:25;25.38;;;12.25;;
69998;SDS011;57339;52.156;5.372;2024-01-07T07:05:52;20.77;;;10.50;;
69998;SDS011;57339;52.156;5.372;2024-01-07T07:08:21;27.30;;;12.75;;
69998;SDS011;57339;52.156;5.372;2024-01-07T07:10:49;26.30;;;13.20;;
69998;SDS011;57339;52.156;5.372;2024-01-07T07:13:16;26.88;;;13.32;;
69998;SDS011;57339;52.156;5.372;2024-01-07T07:15:43;25.88;;;12.43;;
69998;SDS011;57339;52.156;5.372;2024-01-07T07:18:10;26.17;;;11.83;;
69998;SDS011;57339;52.156;5.372;2024-01-07T07:20:38;25.65;;;12.50;;
69998;SDS011;57339;52.156;5.372;2024-01-07T07:23:05;25.35;;;12.65;;
69998;SDS011;57339;52.156;5.372;2024-01-07T07:25:35;23.85;;;11.73;;
69998;SDS011;57339;52.156;5.372;2024-01-07T07:28:02;25.92;;;12.77;;
69998;SDS011;57339;52.156;5.372;2024-01-07T07:30:29;23.90;;;12.07;;
69998;SDS011;57339;52.156;5.372;2024-01-07T07:32:56;23.13;;;11.35;;
69998;SDS011;57339;52.156;5.372;2024-01-07T07:35:23;21.80;;;11.90;;
69998;SDS011;57339;52.156;5.372;2024-01-07T07:37:50;24.63;;;11.85;;
69998;SDS011;57339;52.156;5.372;2024-01-07T07:40:17;23.70;;;11.52;;
69998;SDS011;57339;52.156;5.372;2024-01-07T07:42:48;24.40;;;12.00;;
69998;SDS011;57339;52.156;5.372;2024-01-07T07:45:17;24.73;;;12.63;;
69998;SDS011;57339;52.156;5.372;2024-01-07T07:47:47;26.17;;;12.43;;
69998;SDS011;57339;52.156;5.372;2024-01-07T07:50:16;25.02;;;11.82;;
69998;SDS011;57339;52.156;5.372;2024-01-07T07:52:46;26.90;;;12.95;;
69998;SDS011;57339;52.156;5.372;2024-01-07T07:55:13;25.63;;;12.97;;
69998;SDS011;57339;52.156;5.372;2024-01-07T07:57:40;25.27;;;12.05;;
69998;SDS011;57339;52.156;5.372;2024-01-07T08:00:11;25.52;;;12.00;;
69998;SDS011;57339;52.156;5.372;2024-01-07T08:02:38;24.08;;;11.25;;
69998;SDS011;57339;52.156;5.372;2024-01-07T08:05:06;23.58;;;12.20;;
69998;SDS011;57339;52.156;5.372;2024-01-07T08:07:34;23.73;;;12.47;;
69998;SDS011;57339;52.156;5.372;2024-01-07T08:10:09;25.48;;;12.95;;
69998;SDS011;57339;52.156;5.372;2024-01-07T08:12:36;23.25;;;10.45;;
69998;SDS011;57339;52.156;5.372;2024-01-07T08:15:05;22.92;;;11.65;;
69998;SDS011;57339;52.156;5.372;2024-01-07T08:17:32;25.85;;;13.43;;
69998;SDS011;57339;52.156;5.372;2024-01-07T08:20:00;21.50;;;11.23;;
69998;SDS011;57339;52.156;5.372;2024-01-07T08:22:27;23.63;;;12.40;;
69998;SDS011;57339;52.156;5.372;2024-01-07T08:24:54;24.40;;;12.07;;
69998;SDS011;57339;52.156;5.372;2024-01-07T08:27:21;25.17;;;12.07;;
69998;SDS011;57339;52.156;5.372;2024-01-07T08:29:48;26.25;;;13.43;;
69998;SDS011;57339;52.156;5.372;2024-01-07T08:32:18;27.90;;;13.00;;
69998;SDS011;57339;52.156;5.372;2024-01-07T08:34:51;24.95;;;11.93;;
69998;SDS011;57339;52.156;5.372;2024-01-07T08:37:18;24.08;;;12.05;;
69998;SDS011;57339;52.156;5.372;2024-01-07T08:39:46;22.60;;;11.90;;
69998;SDS011;57339;52.156;5.372;2024-01-07T08:42:13;23.17;;;11.82;;
69998;SDS011;57339;52.156;5.372;2024-01-07T08:44:40;20.63;;;11.33;;
69998;SDS011;57339;52.156;5.372;2024-01-07T08:47:08;20.55;;;11.00;;
69998;SDS011;57339;52.156;5.372;2024-01-07T08:49:35;20.83;;;11.35;;
69998;SDS011;57339;52.156;5.372;2024-01-07T08:52:02;21.00;;;10.60;;
69998;SDS011;57339;52.156;5.372;2024-01-07T08:54:32;20.55;;;10.82;;
69998;SDS011;57339;52.156;5.372;2024-01-07T08:56:59;22.57;;;10.70;;
69998;SDS011;57339;52.156;5.372;2024-01-07T08:59:26;19.13;;;9.77;;
69998;SDS011;57339;52.156;5.372;2024-01-07T09:01:53;19.40;;;9.05;;
69998;SDS011;57339;52.156;5.372;2024-01-07T09:04:20;18.58;;;9.15;;
69998;SDS011;57339;52.156;5.372;2024-01-07T09:06:48;18.88;;;10.30;;
69998;SDS011;57339;52.156;5.372;2024-01-07T09:09:17;24.17;;;10.50;;
69998;SDS011;57339;52.156;5.372;2024-01-07T09:11:45;24.92;;;10.55;;
69998;SDS011;57339;52.156;5.372;2024-01-07T09:14:12;19.58;;;10.18;;
69998;SDS011;57339;52.156;5.372;2024-01-07T09:16:40;21.77;;;10.63;;
69998;SDS011;57339;52.156;5.372;2024-01-07T09:19:07;24.52;;;11.38;;
69998;SDS011;57339;52.156;5.372;2024-01-07T09:21:36;19.97;;;10.70;;
69998;SDS011;57339;52.156;5.372;2024-01-07T09:24:03;18.15;;;8.40;;
69998;SDS011;57339;52.156;5.372;2024-01-07T09:26:31;22.17;;;11.32;;
69998;SDS011;57339;52.156;5.372;2024-01-07T09:28:58;19.75;;;10.75;;
69998;SDS011;57339;52.156;5.372;2024-01-07T09:31:25;23.30;;;10.63;;
69998;SDS011;57339;52.156;5.372;2024-01-07T09:33:53;21.57;;;9.90;;
69998;SDS011;57339;52.156;5.372;2024-01-07T09:36:20;20.45;;;10.00;;
69998;SDS011;57339;52.156;5.372;2024-01-07T09:38:56;18.13;;;9.13;;
69998;SDS011;57339;52.156;5.372;2024-01-07T09:41:23;20.02;;;10.20;;
69998;SDS011;57339;52.156;5.372;2024-01-07T09:43:53;18.02;;;9.75;;
69998;SDS011;57339;52.156;5.372;2024-01-07T09:46:21;19.60;;;9.90;;
69998;SDS011;57339;52.156;5.372;2024-01-07T09:48:52;19.63;;;9.40;;
69998;SDS011;57339;52.156;5.372;2024-01-07T09:51:22;18.58;;;9.10;;
69998;SDS011;57339;52.156;5.372;2024-01-07T09:53:53;16.75;;;8.55;;
69998;SDS011;57339;52.156;5.372;2024-01-07T09:56:25;18.88;;;8.68;;
69998;SDS011;57339;52.156;5.372;2024-01-07T09:58:56;19.03;;;9.03;;
69998;SDS011;57339;52.156;5.372;2024-01-07T10:01:23;18.73;;;9.10;;
69998;SDS011;57339;52.156;5.372;2024-01-07T10:03:51;17.88;;;7.90;;
69998;SDS011;57339;52.156;5.372;2024-01-07T10:06:20;17.00;;;8.20;;
69998;SDS011;57339;52.156;5.372;2024-01-07T10:08:53;15.95;;;7.40;;
69998;SDS011;57339;52.156;5.372;2024-01-07T10:11:21;16.77;;;7.70;;
69998;SDS011;57339;52.156;5.372;2024-01-07T10:13:48;15.55;;;7.88;;
69998;SDS011;57339;52.156;5.372;2024-01-07T10:16:22;14.27;;;6.35;;
69998;SDS011;57339;52.156;5.372;2024-01-07T10:18:52;14.00;;;6.55;;
69998;SDS011;57339;52.156;5.372;2024-01-07T10:21:19;16.45;;;6.72;;
69998;SDS011;57339;52.156;5.372;2024-01-07T10:23:49;14.37;;;6.50;;
69998;SDS011;57339;52.156;5.372;2024-01-07T10:26:37;13.50;;;5.47;;
69998;SDS011;57339;52.156;5.372;2024-01-07T10:29:05;17.15;;;7.18;;
69998;SDS011;57339;52.156;5.372;2024-01-07T10:31:32;13.55;;;6.10;;
69998;SDS011;57339;52.156;5.372;2024-01-07T10:34:00;13.05;;;5.63;;
69998;SDS011;57339;52.156;5.372;2024-01-07T10:36:27;11.43;;;5.00;;
69998;SDS011;57339;52.156;5.372;2024-01-07T10:38:54;13.48;;;5.57;;
69998;SDS011;57339;52.156;5.372;2024-01-07T10:41:22;13.73;;;6.07;;
69998;SDS011;57339;52.156;5.372;2024-01-07T10:43:51;12.75;;;5.47;;
69998;SDS011;57339;52.156;5.372;2024-01-07T10:46:25;11.57;;;5.13;;
69998;SDS011;57339;52.156;5.372;2024-01-07T10:48:55;13.27;;;5.67;;
69998;SDS011;57339;52.156;5.372;2024-01-07T10:51:29;11.63;;;5.00;;
69998;SDS011;57339;52.156;5.372;2024-01-07T10:54:00;12.70;;;5.45;;
69998;SDS011;57339;52.156;5.372;2024-01-07T10:56:38;12.07;;;4.90;;
69998;SDS011;57339;52.156;5.372;2024-01-07T10:59:12;12.13;;;4.53;;
69998;SDS011;57339;52.156;5.372;2024-01-07T11:01:39;11.87;;;4.83;;
69998;SDS011;57339;52.156;5.372;2024-01-07T11:07:31;11.10;;;4.50;;
69998;SDS011;57339;52.156;5.372;2024-01-07T11:10:02;13.55;;;4.63;;
69998;SDS011;57339;52.156;5.372;2024-01-07T11:12:37;13.32;;;5.40;;
69998;SDS011;57339;52.156;5.372;2024-01-07T11:15:06;12.87;;;6.07;;
69998;SDS011;57339;52.156;5.372;2024-01-07T11:20:07;12.30;;;5.25;;
69998;SDS011;57339;52.156;5.372;2024-01-07T11:22:44;11.63;;;4.68;;
69998;SDS011;57339;52.156;5.372;2024-01-07T11:25:27;10.82;;;4.45;;
69998;SDS011;57339;52.156;5.372;2024-01-07T11:27:56;11.13;;;4.43;;
69998;SDS011;57339;52.156;5.372;2024-01-07T11:30:28;12.82;;;4.70;;
69998;SDS011;57339;52.156;5.372;2024-01-07T11:32:58;10.98;;;4.45;;
69998;SDS011;57339;52.156;5.372;2024-01-07T11:38:24;9.77;;;4.15;;
69998;SDS011;57339;52.156;5.372;2024-01-07T11:40:51;11.03;;;4.80;;
69998;SDS011;57339;52.156;5.372;2024-01-07T11:43:19;11.02;;;4.40;;
69998;SDS011;57339;52.156;5.372;2024-01-07T11:45:49;10.52;;;4.05;;
69998;SDS011;57339;52.156;5.372;2024-01-07T11:48:19;9.05;;;3.60;;
69998;SDS011;57339;52.156;5.372;2024-01-07T11:50:48;10.65;;;4.07;;
69998;SDS011;57339;52.156;5.372;2024-01-07T11:53:18;11.33;;;4.60;;
69998;SDS011;57339;52.156;5.372;2024-01-07T11:55:48;10.55;;;3.58;;
69998;SDS011;57339;52.156;5.372;2024-01-07T11:58:18;11.85;;;3.53;;
69998;SDS011;57339;52.156;5.372;2024-01-07T12:00:45;11.65;;;4.35;;
69998;SDS011;57339;52.156;5.372;2024-01-07T12:03:12;11.82;;;4.30;;
69998;SDS011;57339;52.156;5.372;2024-01-07T12:05:39;11.27;;;4.63;;
69998;SDS011;57339;52.156;5.372;2024-01-07T12:08:09;8.93;;;3.53;;
69998;SDS011;57339;52.156;5.372;2024-01-07T12:10:37;11.75;;;4.40;;
69998;SDS011;57339;52.156;5.372;2024-01-07T12:13:04;10.90;;;4.30;;
69998;SDS011;57339;52.156;5.372;2024-01-07T12:15:31;10.07;;;4.38;;
69998;SDS011;57339;52.156;5.372;2024-01-07T12:17:59;9.90;;;3.70;;
69998;SDS011;57339;52.156;5.372;2024-01-07T12:20:30;8.90;;;3.70;;
69998;SDS011;57339;52.156;5.372;2024-01-07T12:22:57;8.77;;;3.75;;
69998;SDS011;57339;52.156;5.372;2024-01-07T12:25:34;10.65;;;3.80;;
69998;SDS011;57339;52.156;5.372;2024-01-07T12:28:01;10.50;;;3.40;;
69998;SDS011;57339;52.156;5.372;2024-01-07T12:30:32;9.10;;;3.60;;
69998;SDS011;57339;52.156;5.372;2024-01-07T12:33:00;9.40;;;3.50;;
69998;SDS011;57339;52.156;5.372;2024-01-07T12:35:30;10.63;;;3.33;;
69998;SDS011;57339;52.156;5.372;2024-01-07T12:37:59;11.07;;;3.47;;
69998;SDS011;57339;52.156;5.372;2024-01-07T12:40:26;10.88;;;3.15;;
69998;SDS011;57339;52.156;5.372;2024-01-07T12:42:53;9.47;;;2.87;;
69998;SDS011;57339;52.156;5.372;2024-01-07T12:45:20;8.77;;;3.40;;
69998;SDS011;57339;52.156;5.372;2024-01-07T12:47:48;10.35;;;3.40;;
69998;SDS011;57339;52.156;5.372;2024-01-07T12:50:15;12.38;;;3.25;;
69998;SDS011;57339;52.156;5.372;2024-01-07T12:52:42;13.98;;;3.10;;
69998;SDS011;57339;52.156;5.372;2024-01-07T12:55:10;7.70;;;2.80;;
69998;SDS011;57339;52.156;5.372;2024-01-07T12:57:40;7.43;;;2.80;;
69998;SDS011;57339;52.156;5.372;2024-01-07T13:00:07;7.68;;;3.10;;
69998;SDS011;57339;52.156;5.372;2024-01-07T13:02:37;9.52;;;2.88;;
69998;SDS011;57339;52.156;5.372;2024-01-07T13:05:06;7.72;;;3.00;;
69998;SDS011;57339;52.156;5.372;2024-01-07T13:07:34;9.00;;;3.27;;
69998;SDS011;57339;52.156;5.372;2024-01-07T13:10:02;7.85;;;3.20;;
69998;SDS011;57339;52.156;5.372;2024-01-07T13:12:29;7.55;;;2.70;;
69998;SDS011;57339;52.156;5.372;2024-01-07T13:15:12;6.28;;;2.58;;
69998;SDS011;57339;52.156;5.372;2024-01-07T13:17:43;7.47;;;2.83;;
69998;SDS011;57339;52.156;5.372;2024-01-07T13:20:10;7.37;;;3.23;;
69998;SDS011;57339;52.156;5.372;2024-01-07T13:22:40;7.35;;;3.10;;
69998;SDS011;57339;52.156;5.372;2024-01-07T13:25:07;9.68;;;3.17;;
69998;SDS011;57339;52.156;5.372;2024-01-07T13:27:35;8.98;;;3.28;;
69998;SDS011;57339;52.156;5.372;2024-01-07T13:30:05;7.97;;;3.00;;
69998;SDS011;57339;52.156;5.372;2024-01-07T13:32:33;7.83;;;2.70;;
69998;SDS011;57339;52.156;5.372;2024-01-07T13:35:00;8.75;;;3.15;;
69998;SDS011;57339;52.156;5.372;2024-01-07T13:37:27;8.85;;;2.95;;
69998;SDS011;57339;52.156;5.372;2024-01-07T13:39:54;11.95;;;3.30;;
69998;SDS011;57339;52.156;5.372;2024-01-07T13:42:24;9.18;;;3.28;;
69998;SDS011;57339;52.156;5.372;2024-01-07T13:44:54;11.83;;;4.03;;
69998;SDS011;57339;52.156;5.372;2024-01-07T13:47:24;10.35;;;3.47;;
69998;SDS011;57339;52.156;5.372;2024-01-07T13:49:54;9.32;;;3.00;;
69998;SDS011;57339;52.156;5.372;2024-01-07T13:52:24;10.77;;;3.17;;
69998;SDS011;57339;52.156;5.372;2024-01-07T13:54:54;8.63;;;2.95;;
69998;SDS011;57339;52.156;5.372;2024-01-07T13:57:25;7.47;;;2.47;;
69998;SDS011;57339;52.156;5.372;2024-01-07T13:59:55;10.18;;;3.60;;
69998;SDS011;57339;52.156;5.372;2024-01-07T14:02:24;7.18;;;2.88;;
69998;SDS011;57339;52.156;5.372;2024-01-07T14:04:54;7.93;;;2.80;;
69998;SDS011;57339;52.156;5.372;2024-01-07T14:07:25;9.38;;;2.95;;
69998;SDS011;57339;52.156;5.372;2024-01-07T14:09:55;7.23;;;2.80;;
69998;SDS011;57339;52.156;5.372;2024-01-07T14:12:24;9.30;;;3.22;;
69998;SDS011;57339;52.156;5.372;2024-01-07T14:14:54;10.57;;;3.35;;
69998;SDS011;57339;52.156;5.372;2024-01-07T14:17:25;6.90;;;2.83;;
69998;SDS011;57339;52.156;5.372;2024-01-07T14:19:52;9.90;;;2.67;;
69998;SDS011;57339;52.156;5.372;2024-01-07T14:22:20;7.47;;;2.50;;
69998;SDS011;57339;52.156;5.372;2024-01-07T14:24:48;7.32;;;2.90;;
69998;SDS011;57339;52.156;5.372;2024-01-07T14:27:16;10.00;;;3.67;;
69998;SDS011;57339;52.156;5.372;2024-01-07T14:29:45;7.43;;;2.78;;
69998;SDS011;57339;52.156;5.372;2024-01-07T14:32:12;7.47;;;2.85;;
69998;SDS011;57339;52.156;5.372;2024-01-07T14:34:40;6.33;;;2.40;;
69998;SDS011;57339;52.156;5.372;2024-01-07T14:37:08;7.50;;;2.80;;
69998;SDS011;57339;52.156;5.372;2024-01-07T14:39:36;6.53;;;2.78;;
69998;SDS011;57339;52.156;5.372;2024-01-07T14:42:03;6.90;;;2.65;;
69998;SDS011;57339;52.156;5.372;2024-01-07T14:44:33;7.32;;;2.70;;